Aviation Digital Data Service (ADDS)

Output produced by METARs form (0609 UTC 25 June 2018)
found at http://www.aviationweather.gov/adds/metars/
 
TAF MNBL 241950Z 2500/2524 07008KT 7000 RA SCT017 SCT070 
     BECMG 2512/2514 10010KT 
     PROB40 
     TEMPO 6000 -TSRA/DZ SCT018CB 
     TEMPO 2516/2520 8000 -RA SCT080
       
MNMG 250500Z 11004KT 9999 FEW021 SCT300 25/22 Q1012 A2990 NOSIG
TAF MNMG 250330Z 2506/2606 14004KT 9999 FEW021 SCT300 
     BECMG 2513/2515 08010KT SCT022 
     TEMPO 2521/2604 11010KT 5000 -TSRA FEW022CB SCT070 
     BECMG 2605/2606 8000 -DZ
       
TAF MNPC 241950Z 2500/2524 08006KT 6000 RA/-DZ BKN016 
     BECMG 2512/2514 09010KT 8000 VCRA FEW014TCU SCT016